createdAt,value
2018-08-30T06:31:18.417Z,28.7
2018-08-30T06:31:28.490Z,28.9
2018-08-30T06:32:18.886Z,28.9
2018-08-30T06:33:08.877Z,29
2018-08-30T06:33:58.747Z,29.2
2018-08-30T06:34:49.846Z,29.3
2018-08-30T06:35:39.133Z,29.4
2018-08-30T06:36:29.233Z,29.5
2018-08-30T06:37:18.684Z,29.6
2018-08-30T06:38:09.006Z,29.8
2018-08-30T06:38:59.287Z,29.9
2018-08-30T06:39:48.539Z,30
2018-08-30T06:40:39.786Z,30.1
2018-08-30T06:41:30.014Z,30.3
2018-08-30T06:42:19.306Z,30.4
2018-08-30T06:43:09.654Z,30.4
2018-08-30T06:43:59.906Z,30.5
2018-08-30T06:44:49.756Z,30.6
2018-08-30T06:45:39.571Z,30.8
2018-08-30T06:46:30.181Z,30.9
2018-08-30T06:47:20.287Z,31
2018-08-30T06:48:10.313Z,31
2018-08-30T06:49:01.235Z,31.1
2018-08-30T06:49:50.519Z,31.3
2018-08-30T06:50:40.534Z,31.4
2018-08-30T06:51:30.854Z,31.5
2018-08-30T06:52:20.699Z,31.6
2018-08-30T06:53:10.416Z,31.8
2018-08-30T06:54:00.187Z,31.9
2018-08-30T06:54:50.256Z,32
2018-08-30T06:55:40.899Z,32.1
2018-08-30T06:56:32.014Z,32.3
2018-08-30T06:57:20.513Z,32.4
2018-08-30T06:58:10.829Z,32.5
2018-08-30T06:59:00.880Z,32.6
2018-08-30T06:59:50.727Z,32.7
2018-08-30T07:00:40.741Z,32.8
2018-08-30T07:01:31.396Z,32.9
2018-08-30T07:02:21.388Z,33.1
2018-08-30T07:03:10.952Z,33.3
2018-08-30T07:04:01.482Z,33.3
2018-08-30T07:04:51.135Z,33.4
2018-08-30T07:05:40.976Z,33.6
2018-08-30T07:06:31.744Z,33.7
2018-08-30T07:07:21.808Z,33.8
2018-08-30T07:08:11.675Z,33.9
2018-08-30T07:09:00.485Z,33.9
2018-08-30T07:09:51.123Z,34.1
2018-08-30T07:10:41.769Z,34.2
2018-08-30T07:11:32.120Z,34.3
2018-08-30T07:12:22.156Z,34.4
2018-08-30T07:13:11.948Z,34.6
2018-08-30T07:14:02.397Z,34.7
2018-08-30T07:14:52.387Z,34.9
2018-08-30T07:15:42.185Z,34.9
2018-08-30T07:16:32.235Z,35.1
2018-08-30T07:17:22.780Z,35.2
2018-08-30T07:18:11.554Z,35.4
2018-08-30T07:19:02.392Z,35.4
2018-08-30T07:19:52.481Z,35.6
2018-08-30T07:20:42.234Z,35.7
2018-08-30T07:21:32.907Z,35.9
2018-08-30T07:22:22.661Z,35.9
2018-08-30T07:23:13.054Z,36.1
2018-08-30T07:24:03.317Z,36.3
2018-08-30T07:24:52.856Z,36.4
2018-08-30T07:25:43.251Z,36.4
2018-08-30T07:26:32.717Z,36.2
2018-08-30T07:27:23.586Z,35.9
2018-08-30T07:28:13.444Z,35.6
2018-08-30T07:29:03.254Z,35.3
2018-08-30T07:29:53.021Z,35.2
2018-08-30T07:30:43.591Z,35.1
2018-08-30T07:31:33.231Z,35.2
2018-08-30T07:32:21.994Z,35.3
2018-08-30T07:33:12.751Z,35.4
2018-08-30T07:34:02.765Z,35.6
2018-08-30T07:34:54.874Z,35.7
2018-08-30T07:35:43.974Z,35.8
2018-08-30T07:36:33.309Z,35.9
2018-08-30T07:37:24.311Z,36.1
2018-08-30T07:38:13.691Z,36.3
2018-08-30T07:39:03.219Z,36.3
2018-08-30T07:39:54.013Z,36.5
2018-08-30T07:40:43.793Z,36.7
2018-08-30T07:41:34.444Z,36.8
2018-08-30T07:42:23.648Z,37
2018-08-30T07:43:14.263Z,37.2
2018-08-30T07:44:04.788Z,37.3
2018-08-30T07:44:54.368Z,37.5
2018-08-30T07:45:44.770Z,37.6
2018-08-30T07:46:33.960Z,37.8
2018-08-30T07:47:25.704Z,37.9
2018-08-30T07:48:14.940Z,38.1
2018-08-30T07:49:04.725Z,38.3
2018-08-30T07:49:55.079Z,38.4
2018-08-30T07:50:44.965Z,38.6
2018-08-30T07:51:35.238Z,38.8
2018-08-30T07:52:25.016Z,38.9
2018-08-30T07:53:15.058Z,39.1
2018-08-30T07:54:05.402Z,39.2
2018-08-30T07:54:55.163Z,39.3
2018-08-30T07:55:44.941Z,39.5
2018-08-30T07:56:35.602Z,39.6
2018-08-30T07:57:25.598Z,39.8
2018-08-30T07:58:15.447Z,39.9
2018-08-30T07:59:05.212Z,40.1
2018-08-30T07:59:56.074Z,40.2
2018-08-30T08:00:45.085Z,40.3
2018-08-30T08:01:35.699Z,40.4
2018-08-30T08:02:25.177Z,40.6
2018-08-30T08:03:16.072Z,40.6
2018-08-30T08:04:06.424Z,40.8
2018-08-30T08:04:55.469Z,40.9
2018-08-30T08:05:45.511Z,41.1
2018-08-30T08:06:35.811Z,41.2
2018-08-30T08:07:26.229Z,41.3
2018-08-30T08:08:16.231Z,41.4
2018-08-30T08:09:06.029Z,41.6
2018-08-30T08:09:56.413Z,41.7
2018-08-30T08:10:45.606Z,41.8
2018-08-30T08:11:36.276Z,41.9
2018-08-30T08:12:26.801Z,42.1
2018-08-30T08:13:16.884Z,42.2
2018-08-30T08:14:06.361Z,42.3
2018-08-30T08:14:56.167Z,42.4
2018-08-30T08:15:46.521Z,42.6
2018-08-30T08:16:36.855Z,42.7
2018-08-30T08:17:26.050Z,42.8
2018-08-30T08:18:16.704Z,42.9
2018-08-30T08:19:08.324Z,43.1
2018-08-30T08:19:57.127Z,43.2
2018-08-30T08:20:47.466Z,43.3
2018-08-30T08:21:37.525Z,43.4
2018-08-30T08:22:27.620Z,43.6
2018-08-30T08:23:17.648Z,43.6
2018-08-30T08:24:07.465Z,43.8
2018-08-30T08:24:58.233Z,43.9
2018-08-30T08:25:48.651Z,44
2018-08-30T08:26:37.356Z,44.1
2018-08-30T08:27:27.985Z,44.3
2018-08-30T08:28:18.050Z,44.4
2018-08-30T08:29:07.857Z,44.4
2018-08-30T08:29:58.190Z,44.6
2018-08-30T08:30:47.675Z,44.8
2018-08-30T08:31:38.054Z,44.9
2018-08-30T08:32:28.062Z,45
2018-08-30T08:33:18.420Z,45.1
2018-08-30T08:34:08.214Z,45.2
2018-08-30T08:34:58.522Z,45.3
2018-08-30T08:35:48.322Z,45.4
2018-08-30T08:36:38.944Z,45.5
2018-08-30T08:37:28.201Z,45.7
2018-08-30T08:38:17.472Z,45.8
2018-08-30T08:39:08.411Z,45.9
2018-08-30T08:39:58.165Z,46
2018-08-30T08:40:48.423Z,46.1
2018-08-30T08:41:39.107Z,46.3
2018-08-30T08:42:29.137Z,46.3
2018-08-30T08:43:18.897Z,46.4
2018-08-30T08:44:09.551Z,46.6
2018-08-30T08:44:58.747Z,46.7
2018-08-30T08:45:49.352Z,46.8
2018-08-30T08:46:39.525Z,46.9
2018-08-30T08:47:29.554Z,47.1
2018-08-30T08:48:19.306Z,47.2
2018-08-30T08:49:09.097Z,47.3
2018-08-30T08:49:59.744Z,47.4
2018-08-30T08:50:49.721Z,47.6
2018-08-30T08:51:39.596Z,47.7
2018-08-30T08:52:29.648Z,47.8
2018-08-30T08:53:19.982Z,47.9
2018-08-30T08:54:10.078Z,48
2018-08-30T08:55:00.085Z,48.1
2018-08-30T08:55:49.663Z,48.2
2018-08-30T08:56:39.694Z,48.3
2018-08-30T08:57:29.298Z,48.4
2018-08-30T09:14:43.590Z,50.6
2018-08-30T09:15:32.040Z,50.8
2018-08-30T09:16:22.137Z,50.9
2018-08-30T09:17:12.905Z,51.1
2018-08-30T09:18:02.514Z,51.1
2018-08-30T09:18:52.501Z,51.3
2018-08-30T09:19:43.343Z,51.4
2018-08-30T09:20:32.653Z,51.4
2018-08-30T09:21:23.020Z,51.6
2018-08-30T09:22:12.760Z,51.7
2018-08-30T09:23:02.839Z,51.8
2018-08-30T09:23:53.215Z,51.9
2018-08-30T09:25:33.592Z,52.1
2018-08-30T09:26:23.670Z,52.2
2018-08-30T09:27:14.967Z,52.3
2018-08-30T09:28:52.974Z,52.5
2018-08-30T09:29:43.840Z,52.6
2018-08-30T09:30:34.090Z,52.7
2018-08-30T09:31:23.761Z,52.8
2018-08-30T09:32:14.118Z,52.9
2018-08-30T09:33:04.131Z,53
2018-08-30T09:33:54.360Z,53.1
2018-08-30T09:34:43.316Z,53.2
2018-08-30T09:35:34.333Z,53.2
2018-08-30T09:36:23.305Z,53.3
2018-08-30T09:37:14.723Z,53.4
2018-08-30T09:38:03.989Z,53.6
2018-08-30T09:38:54.466Z,53.6
2018-08-30T09:39:44.892Z,53.7
2018-08-30T09:40:34.179Z,53.8
2018-08-30T09:41:24.524Z,53.9
2018-08-30T09:42:14.911Z,53.9
2018-08-30T09:43:04.669Z,54.1
2018-08-30T09:43:55.861Z,54.1
2018-08-30T09:44:44.800Z,54.3
2018-08-30T09:45:34.278Z,54.4
2018-08-30T09:46:24.916Z,54.4
2018-08-30T09:47:14.408Z,54.5
2018-08-30T09:48:05.329Z,54.6
2018-08-30T09:48:54.864Z,54.7
2018-08-30T09:49:45.785Z,54.8
2018-08-30T09:50:35.236Z,54.9
2018-08-30T09:51:24.721Z,55
2018-08-30T09:52:14.783Z,55.1
2018-08-30T09:53:04.870Z,55.2
2018-08-30T09:53:54.933Z,55.3
2018-08-30T09:54:46.169Z,55.4
2018-08-30T09:55:35.946Z,55.4
2018-08-30T09:56:26.245Z,55.5
2018-08-30T09:57:16.620Z,55.6
2018-08-30T09:58:05.878Z,55.7
2018-08-30T09:58:56.145Z,55.8
2018-08-30T09:59:46.259Z,55.9
2018-08-30T10:00:36.050Z,55.9
2018-08-30T10:01:26.060Z,56.1
2018-08-30T10:02:16.216Z,56.1
2018-08-30T10:03:05.995Z,56.2
2018-08-30T10:03:57.537Z,56.3
2018-08-30T10:04:47.325Z,56.3
2018-08-30T10:05:36.369Z,56.4
2018-08-30T10:06:27.013Z,56.5
2018-08-30T10:07:16.287Z,56.6
2018-08-30T10:08:06.355Z,56.6
2018-08-30T10:08:55.927Z,56.8
2018-08-30T10:09:46.729Z,56.9
2018-08-30T10:10:37.146Z,56.9
2018-08-30T10:11:26.886Z,57.1
2018-08-30T10:12:16.683Z,57.1
2018-08-30T10:13:06.440Z,57.2
2018-08-30T10:13:57.340Z,57.3
2018-08-30T10:14:46.590Z,57.4
2018-08-30T10:15:37.024Z,57.5
2018-08-30T10:16:26.807Z,57.6
2018-08-30T10:17:17.112Z,57.6
2018-08-30T10:18:07.620Z,57.7
2018-08-30T10:19:46.983Z,57.9
2018-08-30T10:20:37.293Z,57.9
2018-08-30T10:21:28.108Z,58
2018-08-30T10:22:17.326Z,58.1
2018-08-30T10:23:07.309Z,58.1
2018-08-30T10:23:57.311Z,58.3
2018-08-30T10:24:48.198Z,58.4
2018-08-30T10:25:38.151Z,58.4
2018-08-30T10:26:28.341Z,58.5
2018-08-30T10:28:07.953Z,58.6
2018-08-30T10:28:57.680Z,58.7
2018-08-30T10:29:47.740Z,58.8
2018-08-30T10:30:38.524Z,58.9
2018-08-30T10:31:28.581Z,58.9
2018-08-30T10:32:18.235Z,59
2018-08-30T10:33:08.170Z,59.1
2018-08-30T10:33:58.081Z,59.1
2018-08-30T10:34:48.412Z,59.2
2018-08-30T10:35:39.327Z,59.3
2018-08-30T10:36:28.545Z,59.4
2018-08-30T10:37:18.118Z,59.4
2018-08-30T10:38:09.490Z,59.5
2018-08-30T10:38:59.232Z,59.6
2018-08-30T10:39:49.068Z,59.7
2018-08-30T10:40:39.175Z,59.8
2018-08-30T10:41:28.933Z,59.8
2018-08-30T10:42:19.592Z,59.9
2018-08-30T10:43:09.900Z,59.9
2018-08-30T10:43:58.897Z,60
2018-08-30T10:44:49.470Z,60.1
2018-08-30T10:45:38.947Z,60.1
2018-08-30T10:46:29.357Z,60.2
2018-08-30T10:47:19.105Z,60.3
2018-08-30T10:48:10.362Z,60.3
2018-08-30T10:48:59.527Z,60.4
2018-08-30T10:49:50.274Z,60.4
2018-08-30T10:50:39.889Z,60.5
2018-08-30T10:51:29.471Z,60.6
2018-08-30T10:52:20.352Z,60.6
2018-08-30T10:53:09.797Z,60.8
2018-08-30T10:54:00.474Z,60.8
2018-08-30T10:54:49.964Z,60.9
2018-08-30T10:55:39.487Z,60.9
2018-08-30T10:56:31.502Z,60.9
2018-08-30T10:57:21.124Z,61.1
2018-08-30T10:58:12.109Z,61.1
2018-08-30T10:59:01.276Z,61.2
2018-08-30T10:59:51.057Z,61.3
2018-08-30T11:00:43.204Z,61.4
2018-08-30T11:02:20.956Z,61.6
2018-08-30T11:03:11.676Z,61.6
2018-08-30T11:04:01.446Z,61.7
2018-08-30T11:04:53.624Z,61.8
2018-08-30T11:05:41.817Z,61.8
2018-08-30T11:06:35.429Z,61.9
2018-08-30T11:07:22.649Z,61.9
2018-08-30T11:08:12.631Z,61.9
2018-08-30T11:09:01.099Z,62
2018-08-30T11:09:52.919Z,62.1
2018-08-30T11:10:42.566Z,62.1
2018-08-30T11:11:31.956Z,62.1
2018-08-30T11:12:21.816Z,62.2
2018-08-30T11:13:13.144Z,62.3
2018-08-30T11:14:01.916Z,62.4
2018-08-30T11:14:52.134Z,62.4
2018-08-30T11:15:43.068Z,62.5
2018-08-30T11:16:32.743Z,62.6
2018-08-30T11:17:22.408Z,62.6
2018-08-30T11:18:12.580Z,62.7
2018-08-30T11:19:02.117Z,62.8
2018-08-30T11:19:52.230Z,62.8
2018-08-30T11:20:42.290Z,62.9
2018-08-30T11:21:33.373Z,62.9
2018-08-30T11:22:23.136Z,63
2018-08-30T11:23:13.125Z,63.1
2018-08-30T11:24:04.800Z,63.1
2018-08-30T11:24:53.840Z,63.1
2018-08-30T11:25:43.134Z,63.2
2018-08-30T11:26:33.367Z,63.3
2018-08-30T11:27:22.559Z,63.4
2018-08-30T11:28:12.606Z,63.4
2018-08-30T11:29:03.598Z,63.5
2018-08-30T11:29:52.772Z,63.6
2018-08-30T11:30:42.808Z,63.6
2018-08-30T11:31:34.902Z,63.6
2018-08-30T11:32:23.191Z,63.7
2018-08-30T11:33:13.468Z,63.8
2018-08-30T11:34:03.370Z,63.8
2018-08-30T11:34:53.429Z,63.8
2018-08-30T11:35:43.730Z,63.9
2018-08-30T11:36:33.482Z,64
2018-08-30T11:37:23.577Z,64
2018-08-30T11:38:12.849Z,64.1
2018-08-30T11:39:02.872Z,64.1
2018-08-30T11:39:53.768Z,64.3
2018-08-30T11:40:44.137Z,64.3
2018-08-30T11:41:36.576Z,64.3
2018-08-30T11:42:24.213Z,64.4
2018-08-30T11:43:14.227Z,64.4
2018-08-30T11:44:04.949Z,64.6
2018-08-30T11:44:54.250Z,64.6
2018-08-30T11:45:44.924Z,64.7
2018-08-30T11:46:34.744Z,64.7
2018-08-30T11:47:24.371Z,64.8
2018-08-30T11:48:13.598Z,64.8
2018-08-30T11:49:04.245Z,64.8
2018-08-30T11:49:54.278Z,64.9
2018-08-30T11:50:44.075Z,64.8
2018-08-30T11:51:34.498Z,65
2018-08-30T11:52:25.602Z,65.1
2018-08-30T11:53:14.331Z,65.1
2018-08-30T11:54:04.732Z,65.1
2018-08-30T11:54:54.653Z,65.2
2018-08-30T11:55:45.280Z,65.3
2018-08-30T11:56:35.101Z,65.3
2018-08-30T11:57:25.170Z,65.3
2018-08-30T11:58:14.913Z,65.4
2018-08-30T11:59:05.596Z,65.4
2018-08-30T11:59:55.623Z,65.4
2018-08-30T12:00:46.162Z,65.4
2018-08-30T12:01:35.191Z,65.5
2018-08-30T12:02:26.036Z,65.6
2018-08-30T12:03:14.560Z,65.6
2018-08-30T12:04:05.385Z,65.6
2018-08-30T12:04:56.348Z,65.7
2018-08-30T12:05:45.491Z,65.7
2018-08-30T12:06:35.025Z,65.8
2018-08-30T12:07:25.689Z,65.8
2018-08-30T12:08:16.441Z,65.8
2018-08-30T12:09:06.005Z,65.8
2018-08-30T12:10:11.573Z,65.9
2018-08-30T12:10:47.169Z,65.9
2018-08-30T12:11:35.951Z,65.9
2018-08-30T12:12:26.674Z,65.9
2018-08-30T12:13:16.385Z,66
2018-08-30T12:14:05.892Z,66.1
2018-08-30T12:14:55.947Z,66.1
2018-08-30T12:15:46.582Z,66.1
2018-08-30T12:16:36.973Z,66.1
2018-08-30T12:17:26.800Z,66.1
2018-08-30T12:18:17.509Z,66.2
2018-08-30T12:19:06.412Z,66.2
2018-08-30T12:19:57.213Z,66.3
2018-08-30T12:20:48.377Z,66.3
2018-08-30T12:21:52.231Z,66.3
2018-08-30T12:22:27.646Z,66.4
2018-08-30T12:23:16.844Z,66.4
2018-08-30T12:24:07.219Z,66.4
2018-08-30T12:24:57.058Z,66.3
2018-08-30T12:25:47.061Z,66.3
2018-08-30T12:26:37.216Z,66.4
2018-08-30T12:27:27.329Z,66.4
2018-08-30T12:28:17.752Z,66.4
2018-08-30T12:29:08.355Z,66.5
2018-08-30T12:29:58.046Z,66.6
2018-08-30T12:30:47.780Z,66.6
2018-08-30T12:31:39.435Z,66.6
2018-08-30T12:32:28.725Z,66.6
2018-08-30T12:33:17.771Z,66.6
2018-08-30T12:34:08.819Z,66.6
2018-08-30T12:34:59.218Z,66.7
2018-08-30T12:35:49.898Z,66.7
2018-08-30T12:36:38.635Z,66.8
2018-08-30T12:37:28.663Z,66.8
2018-08-30T12:38:19.185Z,66.8
2018-08-30T12:39:08.876Z,66.8
2018-08-30T12:39:59.812Z,66.8
2018-08-30T12:40:48.240Z,66.8
2018-08-30T12:41:38.743Z,66.9
2018-08-30T12:42:28.919Z,66.9
2018-08-30T12:43:19.654Z,66.9
2018-08-30T12:44:09.284Z,66.9
2018-08-30T12:44:59.332Z,66.9
2018-08-30T12:45:48.416Z,66.9
2018-08-30T12:46:39.693Z,66.9
2018-08-30T12:47:29.080Z,66.9
2018-08-30T12:48:19.418Z,66.9
2018-08-30T12:49:09.112Z,67
2018-08-30T12:49:59.602Z,66.9
2018-08-30T12:50:52.160Z,66.9
2018-08-30T12:51:43.829Z,67
2018-08-30T12:52:31.159Z,67
2018-08-30T12:53:21.796Z,67
2018-08-30T12:54:12.345Z,67
2018-08-30T12:55:01.003Z,67
2018-08-30T12:55:51.781Z,67.1
2018-08-30T12:56:41.611Z,67.1
2018-08-30T12:57:31.279Z,67.1
2018-08-30T12:58:23.153Z,67.1
2018-08-30T12:59:10.837Z,67.1
2018-08-30T13:00:02.824Z,67.1
2018-08-30T13:00:51.694Z,67.1
2018-08-30T13:01:41.734Z,67.1
2018-08-30T13:02:33.090Z,67.1
2018-08-30T13:03:23.899Z,67.1
2018-08-30T13:04:12.806Z,67.1
2018-08-30T13:05:05.356Z,67.1
2018-08-30T13:05:56.140Z,67.1
2018-08-30T13:06:42.270Z,67.1
2018-08-30T13:07:33.439Z,67.2
2018-08-30T13:08:24.849Z,67.1
2018-08-30T13:09:18.002Z,67.1
2018-08-30T13:10:06.562Z,67.1
2018-08-30T13:10:54.839Z,67.1
2018-08-30T13:11:44.831Z,67.1
2018-08-30T13:12:35.619Z,67.1
2018-08-30T13:13:25.247Z,67.1
2018-08-30T13:14:16.400Z,67.1
2018-08-30T13:15:07.341Z,67.1
2018-08-30T13:15:54.016Z,67.1
2018-08-30T13:16:45.226Z,67.1
2018-08-30T13:17:33.158Z,67.1
2018-08-30T13:18:23.783Z,67.1
2018-08-30T13:19:17.061Z,67.1
2018-08-30T13:20:06.111Z,67
2018-08-30T13:20:55.724Z,66.9
2018-08-30T13:21:46.350Z,67
2018-08-30T13:22:38.320Z,66.9
2018-08-30T13:23:26.436Z,66.9
2018-08-30T13:24:14.161Z,66.9
2018-08-30T13:25:08.411Z,66.9
2018-08-30T13:26:44.165Z,66.8
2018-08-30T13:27:38.255Z,66.8
2018-08-30T13:28:26.089Z,66.8
2018-08-30T13:29:16.130Z,66.8
2018-08-30T13:30:05.815Z,66.8
2018-08-30T13:30:58.500Z,66.8
2018-08-30T13:31:49.891Z,66.8
2018-08-30T13:32:37.719Z,66.8
2018-08-30T13:33:30.444Z,66.8
2018-08-30T13:34:21.458Z,66.7
2018-08-30T13:35:11.753Z,66.7
2018-08-30T13:35:59.588Z,66.7
2018-08-30T13:36:50.449Z,66.7
2018-08-30T13:37:38.268Z,66.7
2018-08-30T13:38:27.541Z,66.6
2018-08-30T13:39:20.549Z,66.7
2018-08-30T13:40:11.241Z,66.6
2018-08-30T13:41:00.537Z,66.6
2018-08-30T13:41:48.485Z,66.6
2018-08-30T13:42:38.867Z,66.6
2018-08-30T13:43:29.034Z,66.6
2018-08-30T13:44:20.077Z,66.6
2018-08-30T13:45:09.812Z,66.5
2018-08-30T13:46:02.386Z,66.5
2018-08-30T13:46:48.364Z,66.4
2018-08-30T13:47:40.503Z,66.4
2018-08-30T13:48:29.369Z,66.4
2018-08-30T13:49:18.006Z,66.4
2018-08-30T13:50:08.020Z,66.4
2018-08-30T13:51:00.635Z,66.3
2018-08-30T13:51:51.758Z,66.3
2018-08-30T13:52:37.489Z,66.2
2018-08-30T13:53:30.565Z,66.3
2018-08-30T13:54:18.667Z,66.2
2018-08-30T13:55:11.660Z,66.1
2018-08-30T13:56:01.053Z,66.1
2018-08-30T13:56:50.169Z,66.1
2018-08-30T13:57:45.134Z,66.1
2018-08-30T13:58:31.203Z,65.9
2018-08-30T13:59:21.262Z,65.9
2018-08-30T14:00:15.558Z,65.8
2018-08-30T14:01:04.396Z,65.9
2018-08-30T14:01:51.667Z,65.8
2018-08-30T14:02:39.031Z,65.8
2018-08-30T14:03:27.787Z,65.8
2018-08-30T14:04:19.985Z,65.8
2018-08-30T14:05:09.615Z,65.7
2018-08-30T14:06:00.304Z,65.6
2018-08-30T14:06:51.152Z,65.6
2018-08-30T14:07:38.606Z,65.5
2018-08-30T14:08:31.135Z,65.5
2018-08-30T14:09:21.255Z,65.4
2018-08-30T14:10:12.203Z,65.4
2018-08-30T14:11:00.740Z,65.3
2018-08-30T14:11:52.293Z,65.3
2018-08-30T14:12:40.981Z,65.3
2018-08-30T14:13:31.807Z,65.2
2018-08-30T14:14:19.440Z,65.1
2018-08-30T14:15:12.017Z,65.1
2018-08-30T14:15:56.069Z,65
2018-08-30T14:16:47.071Z,65
2018-08-30T14:17:36.541Z,64.9
2018-08-30T14:18:26.789Z,64.9
2018-08-30T14:19:17.837Z,64.8
2018-08-30T14:20:07.024Z,64.8
2018-08-30T14:20:56.779Z,64.7
2018-08-30T14:21:46.924Z,64.6
2018-08-30T14:22:36.831Z,64.6
2018-08-30T14:23:27.077Z,64.5
2018-08-30T14:24:16.554Z,64.4
2018-08-30T14:25:06.829Z,64.4
2018-08-30T14:25:57.108Z,64.3
2018-08-30T14:26:47.982Z,64.3
2018-08-30T14:27:37.086Z,64.3
2018-08-30T14:28:26.012Z,64.2
2018-08-30T14:29:16.959Z,64.1
2018-08-30T14:30:07.336Z,64.1
2018-08-30T14:30:57.281Z,63.9
2018-08-30T14:31:47.734Z,63.9
2018-08-30T14:32:37.685Z,63.8
2018-08-30T14:33:26.966Z,63.8
2018-08-30T14:34:17.486Z,63.7
2018-08-30T14:35:08.248Z,63.6
2018-08-30T14:35:57.889Z,63.5
2018-08-30T14:36:48.212Z,63.4
2018-08-30T14:37:37.419Z,63.4
2018-08-30T14:38:27.698Z,63.3
2018-08-30T14:39:18.755Z,63.3
2018-08-30T14:40:08.722Z,63.2
2018-08-30T14:41:14.780Z,63.1
2018-08-30T14:41:50.606Z,63
2018-08-30T14:42:38.172Z,62.9
2018-08-30T14:43:28.005Z,62.9
2018-08-30T14:44:18.580Z,62.8
2018-08-30T14:45:08.381Z,62.7
2018-08-30T14:45:58.609Z,62.6
2018-08-30T14:46:48.197Z,62.6
2018-08-30T14:47:42.169Z,62.5
2018-08-30T14:48:28.644Z,62.4
2018-08-30T14:49:18.217Z,62.3
2018-08-30T14:50:08.890Z,62.3
2018-08-30T14:50:59.480Z,62.2
2018-08-30T14:51:49.658Z,62.1
2018-08-30T14:52:38.857Z,62.1
2018-08-30T14:53:31.550Z,61.9
2018-08-30T14:54:20.305Z,61.9
2018-08-30T14:55:08.972Z,61.8
2018-08-30T14:55:59.124Z,61.8
2018-08-30T14:56:49.573Z,61.6
2018-08-30T14:57:39.128Z,61.6
2018-08-30T14:58:29.309Z,61.4
2018-08-30T14:59:20.185Z,61.4
2018-08-30T15:00:10.095Z,61.3
2018-08-30T15:00:58.894Z,61.2
2018-08-30T15:01:49.707Z,61.1
2018-08-30T15:02:39.175Z,61
2018-08-30T15:03:29.787Z,60.9
2018-08-30T15:04:20.106Z,60.9
2018-08-30T15:05:10.530Z,60.8
2018-08-30T15:06:02.542Z,60.7
2018-08-30T15:06:50.329Z,60.6
2018-08-30T15:07:39.745Z,60.5
2018-08-30T15:08:30.362Z,60.4
2018-08-30T15:09:20.164Z,60.3
2018-08-30T15:10:10.086Z,60.3
2018-08-30T15:10:59.877Z,60.2
2018-08-30T15:11:50.223Z,60.1
2018-08-30T15:12:41.404Z,60
2018-08-30T15:13:30.437Z,59.9
2018-08-30T15:14:20.825Z,59.8
2018-08-30T15:15:10.806Z,59.7
2018-08-30T15:16:00.810Z,59.6
2018-08-30T15:16:50.518Z,59.6
2018-08-30T15:17:41.110Z,59.4
2018-08-30T15:18:31.036Z,59.4
2018-08-30T15:19:21.336Z,59.3
2018-08-30T15:20:12.434Z,59.2
2018-08-30T15:21:00.852Z,59.1
2018-08-30T15:21:51.027Z,59
2018-08-30T15:22:41.628Z,58.9
2018-08-30T15:23:33.223Z,58.8
2018-08-30T15:24:21.573Z,58.8
2018-08-30T15:25:11.537Z,58.6
2018-08-30T15:26:52.909Z,58.5
2018-08-30T15:27:41.353Z,58.4
2018-08-30T15:28:31.737Z,58.3
2018-08-30T15:29:23.943Z,58.3
2018-08-30T15:30:11.935Z,58.1
2018-08-30T15:31:02.355Z,58.1
2018-08-30T15:31:51.516Z,57.9
2018-08-30T15:32:41.820Z,57.9
2018-08-30T15:34:21.327Z,57.7
2018-08-30T15:35:14.816Z,57.6
2018-08-30T15:36:02.029Z,57.5
2018-08-30T15:36:52.837Z,57.4
2018-08-30T15:37:42.192Z,57.4
2018-08-30T15:38:33.667Z,57.3
2018-08-30T15:39:22.837Z,57.2
2018-08-30T15:40:27.836Z,57.1
2018-08-30T15:41:02.311Z,57
2018-08-30T15:41:52.244Z,56.9
2018-08-30T15:42:43.197Z,56.8
2018-08-30T15:43:33.089Z,56.8
2018-08-30T15:44:23.180Z,56.6
2018-08-30T15:45:13.090Z,56.6
2018-08-30T15:46:03.773Z,56.4
2018-08-30T15:46:53.444Z,56.4
2018-08-30T15:47:43.049Z,56.3
2018-08-30T15:48:34.417Z,56.2
2018-08-30T15:49:23.784Z,56.1
2018-08-30T15:50:14.054Z,56
2018-08-30T15:51:03.952Z,55.9
2018-08-30T15:51:53.661Z,55.8
2018-08-30T15:52:44.422Z,55.7
2018-08-30T15:53:33.282Z,55.6
2018-08-30T15:54:23.795Z,55.5
2018-08-30T15:55:14.183Z,55.4
2018-08-30T15:56:05.965Z,55.3
2018-08-30T15:56:53.963Z,54.9
2018-08-30T16:15:38.805Z,48.9
2018-08-30T16:16:29.232Z,48.8
2018-08-30T16:17:21.800Z,48.6
2018-08-30T16:18:08.407Z,48.4
2018-08-30T16:18:59.424Z,48.3
2018-08-30T16:19:49.603Z,48.3
2018-08-30T16:20:39.917Z,48.1
2018-08-30T16:21:29.713Z,48
2018-08-30T16:22:19.803Z,47.9
2018-08-30T16:23:10.792Z,47.8
2018-08-30T16:23:59.420Z,47.7
2018-08-30T16:24:51.335Z,47.6
2018-08-30T16:25:40.603Z,47.5
2018-08-30T16:26:30.523Z,47.4
2018-08-30T16:27:19.111Z,47.3
2018-08-30T16:28:10.158Z,47.2
2018-08-30T16:29:00.541Z,47.1
2018-08-30T16:29:49.368Z,47
2018-08-30T16:30:42.160Z,46.9
2018-08-30T16:31:31.698Z,46.8
2018-08-30T16:32:19.947Z,46.8
2018-08-30T16:33:10.407Z,46.7
2018-08-30T16:34:00.006Z,46.6
2018-08-30T16:34:50.508Z,46.5
2018-08-30T16:35:40.305Z,46.4
2018-08-30T16:36:31.115Z,46.4
2018-08-30T16:37:20.874Z,46.3
2018-08-30T16:38:10.402Z,46.2
2018-08-30T16:39:00.313Z,46.1
2018-08-30T16:39:52.728Z,46.1
2018-08-30T16:40:40.764Z,46
2018-08-30T16:41:32.173Z,45.9
2018-08-30T16:42:21.204Z,45.8
2018-08-30T16:43:13.085Z,45.8
2018-08-30T16:44:01.299Z,45.7
2018-08-30T16:44:51.755Z,45.6
2018-08-30T16:45:41.192Z,45.6
2018-08-30T16:46:31.617Z,45.5
2018-08-30T16:47:22.822Z,45.4
2018-08-30T16:48:11.657Z,45.4
2018-08-30T16:49:02.610Z,45.3
2018-08-30T16:49:50.995Z,45.3
2018-08-30T16:50:41.622Z,45.2
2018-08-30T16:51:32.207Z,45.1
2018-08-30T16:52:21.969Z,45.1
2018-08-30T16:53:13.064Z,45.1
2018-08-30T16:54:02.119Z,45
2018-08-30T16:54:51.294Z,44.9
2018-08-30T16:55:44.320Z,44.9
2018-08-30T16:56:32.449Z,44.8
2018-08-30T16:57:23.468Z,44.8
2018-08-30T16:58:11.882Z,44.7
2018-08-30T16:59:02.949Z,44.7
2018-08-30T16:59:52.641Z,44.6
2018-08-30T17:00:42.843Z,44.6
2018-08-30T17:01:32.536Z,44.5
2018-08-30T17:02:24.599Z,44.4
2018-08-30T17:03:11.921Z,44.4
2018-08-30T17:04:03.465Z,44.4
2018-08-30T17:04:53.232Z,44.3
2018-08-30T17:05:42.451Z,44.3
2018-08-30T17:06:33.222Z,44.2
2018-08-30T17:07:23.239Z,44.2
2018-08-30T17:08:13.045Z,44.1
2018-08-30T17:09:03.347Z,44.1
2018-08-30T17:09:53.087Z,44
2018-08-30T17:10:42.905Z,44
2018-08-30T17:11:33.041Z,43.9
2018-08-30T17:12:23.296Z,43.9
2018-08-30T17:13:13.873Z,43.9
2018-08-30T17:14:03.810Z,43.8
2018-08-30T17:14:53.349Z,43.8
2018-08-30T17:15:43.663Z,43.8
2018-08-30T17:16:33.909Z,43.7
2018-08-30T17:17:24.534Z,43.7
2018-08-30T17:18:16.107Z,43.6
2018-08-30T17:19:03.771Z,43.6
2018-08-30T17:19:53.510Z,43.6
2018-08-30T17:20:44.615Z,43.4
2018-08-30T17:21:35.295Z,43.4
2018-08-30T17:22:24.909Z,43.4
2018-08-30T17:23:14.360Z,43.4
2018-08-30T17:24:04.718Z,43.3
2018-08-30T17:24:55.150Z,43.3
2018-08-30T17:25:44.310Z,43.3
2018-08-30T17:26:34.327Z,43.2
2018-08-30T17:27:24.547Z,43.2
2018-08-30T17:28:14.744Z,43.1
2018-08-30T17:29:05.182Z,43.1
2018-08-30T17:29:54.580Z,43.1
2018-08-30T17:30:44.908Z,43.1
2018-08-30T17:31:34.760Z,43
2018-08-30T17:32:24.729Z,43
2018-08-30T17:33:15.572Z,42.9
2018-08-30T17:34:05.502Z,42.9
2018-08-30T17:34:55.000Z,42.9
2018-08-30T17:35:45.383Z,42.8
2018-08-30T17:36:35.870Z,42.8
2018-08-30T17:37:25.467Z,42.8
2018-08-30T17:38:15.823Z,42.8
2018-08-30T17:39:06.895Z,42.8
2018-08-30T17:39:55.925Z,42.7
2018-08-30T17:40:45.802Z,42.6
2018-08-30T17:41:35.811Z,42.6
2018-08-30T17:42:27.069Z,42.6
2018-08-30T17:43:15.454Z,42.6
2018-08-30T17:44:06.339Z,42.6
2018-08-30T17:44:55.992Z,42.5
2018-08-30T17:45:46.956Z,42.5
2018-08-30T17:46:35.941Z,42.4
2018-08-30T17:47:26.009Z,42.4
2018-08-30T17:48:16.684Z,42.4
2018-08-30T17:49:06.256Z,42.4
2018-08-30T17:49:56.822Z,42.3
2018-08-30T17:50:46.803Z,42.3
2018-08-30T17:51:36.114Z,42.3
2018-08-30T17:52:26.379Z,42.3
2018-08-30T17:53:16.121Z,42.3
2018-08-30T17:54:07.058Z,42.2
2018-08-30T17:54:57.186Z,42.2
2018-08-30T17:55:47.654Z,42.1
2018-08-30T17:56:37.445Z,42.1
2018-08-30T17:57:27.058Z,42.1
2018-08-30T17:58:16.933Z,42.1
2018-08-30T17:59:07.884Z,42.1
2018-08-30T17:59:59.415Z,42
2018-08-30T18:00:46.777Z,42
2018-08-30T18:01:38.260Z,41.9
2018-08-30T18:02:27.278Z,41.9
2018-08-30T18:03:18.407Z,41.9
2018-08-30T18:04:07.395Z,41.9
2018-08-30T18:04:57.349Z,41.9
2018-08-30T18:05:47.730Z,41.8
2018-08-30T18:06:38.277Z,41.8
2018-08-30T18:07:27.233Z,41.8
2018-08-30T18:08:18.140Z,41.8
2018-08-30T18:09:08.110Z,41.8
2018-08-30T18:09:58.674Z,41.8
2018-08-30T18:10:47.777Z,41.7
2018-08-30T18:11:37.592Z,41.7
2018-08-30T18:12:28.782Z,41.7
2018-08-30T18:13:17.686Z,41.6
2018-08-30T18:14:08.285Z,41.6
2018-08-30T18:14:58.398Z,41.6
2018-08-30T18:15:48.433Z,41.6
2018-08-30T18:16:38.491Z,41.6
2018-08-30T18:17:28.296Z,41.6
2018-08-30T18:18:18.633Z,41.5
2018-08-30T18:19:08.967Z,41.5
2018-08-30T18:19:59.295Z,41.4